createdAt,value
2023-05-10T00:00:29.269Z,12.54
2023-05-10T00:05:30.019Z,12.51
2023-05-10T00:10:32.033Z,12.49
2023-05-10T00:15:32.753Z,12.51
2023-05-10T00:20:33.445Z,12.27
2023-05-10T00:25:35.525Z,12.27
2023-05-10T00:30:36.163Z,12.21
2023-05-10T00:35:37.030Z,12.20
2023-05-10T00:40:39.110Z,12.08
2023-05-10T00:45:45.725Z,12.01
2023-05-10T00:50:46.836Z,12.03
2023-05-10T00:55:48.940Z,11.96
2023-05-10T01:00:50.278Z,11.85
2023-05-10T01:05:51.477Z,11.78
2023-05-10T01:10:53.872Z,11.70
2023-05-10T01:15:54.807Z,11.68
2023-05-10T01:21:06.493Z,11.53
2023-05-10T01:26:27.150Z,11.51
2023-05-10T01:31:42.744Z,11.49
2023-05-10T01:36:50.153Z,11.45
2023-05-10T01:41:56.900Z,11.44
2023-05-10T01:47:03.617Z,11.38
2023-05-10T01:52:12.813Z,11.23
2023-05-10T01:57:16.346Z,11.15
2023-05-10T02:02:17.536Z,11.25
2023-05-10T02:07:22.122Z,11.09
2023-05-10T02:12:24.308Z,11.08
2023-05-10T02:17:27.038Z,10.97
2023-05-10T02:22:30.161Z,10.95
2023-05-10T02:27:32.413Z,10.93
2023-05-10T02:32:33.529Z,10.89
2023-05-10T02:37:37.744Z,10.84
2023-05-10T02:42:40.724Z,10.88
2023-05-10T02:47:41.550Z,10.86
2023-05-10T02:52:48.713Z,10.87
2023-05-10T02:57:54.585Z,10.86
2023-05-10T03:02:55.769Z,10.77
2023-05-10T03:07:58.770Z,10.77
2023-05-10T03:13:09.597Z,10.76
2023-05-10T03:18:14.039Z,10.68
2023-05-10T03:23:25.283Z,10.68
2023-05-10T03:28:27.836Z,10.67
2023-05-10T03:33:28.693Z,10.68
2023-05-10T03:38:30.857Z,10.70
2023-05-10T03:43:31.766Z,10.64
2023-05-10T03:48:32.552Z,10.68
2023-05-10T03:53:34.686Z,10.69
2023-05-10T03:58:35.420Z,10.71
2023-05-10T04:03:37.449Z,11.07
2023-05-10T04:08:40.470Z,11.33
2023-05-10T04:13:41.373Z,11.55
2023-05-10T04:18:42.077Z,11.76
2023-05-10T04:23:44.115Z,11.72
2023-05-10T04:28:44.839Z,11.78
2023-05-10T04:33:45.607Z,11.66
2023-05-10T04:38:47.738Z,11.49
2023-05-10T04:43:50.057Z,11.40
2023-05-10T04:48:50.760Z,11.45
2023-05-10T04:54:05.151Z,11.43
2023-05-10T04:59:06.959Z,11.55
2023-05-10T05:04:07.825Z,11.60
2023-05-10T05:09:11.161Z,11.72
2023-05-10T05:14:11.872Z,11.78
2023-05-10T05:19:12.638Z,11.87
2023-05-10T05:24:14.663Z,12.03
2023-05-10T05:29:15.419Z,12.17
2023-05-10T05:34:16.141Z,12.25
2023-05-10T05:39:18.233Z,12.38
2023-05-10T05:44:18.907Z,12.52
2023-05-10T05:49:19.555Z,12.66
2023-05-10T05:54:21.559Z,12.85
2023-05-10T05:59:22.262Z,12.97
2023-05-10T06:04:23.253Z,13.16
2023-05-10T06:09:25.821Z,13.27
2023-05-10T06:14:26.566Z,13.48
2023-05-10T06:19:27.490Z,13.61
2023-05-10T06:24:29.558Z,13.66
2023-05-10T06:29:30.325Z,13.81
2023-05-10T06:34:31.191Z,14.07
2023-05-10T06:39:33.822Z,14.27
2023-05-10T06:44:34.616Z,14.27
2023-05-10T06:49:35.310Z,14.37
2023-05-10T06:54:37.382Z,14.58
2023-05-10T06:59:38.442Z,14.67
2023-05-10T07:04:39.365Z,14.75
2023-05-10T07:09:41.451Z,14.95
2023-05-10T07:14:42.223Z,15.13
2023-05-10T07:19:42.922Z,15.18
2023-05-10T07:24:45.267Z,15.42
2023-05-10T07:29:47.134Z,15.51
2023-05-10T07:34:47.898Z,15.60
2023-05-10T07:39:49.996Z,15.65
2023-05-10T07:44:50.675Z,15.79
2023-05-10T07:49:51.365Z,15.76
2023-05-10T07:54:53.389Z,15.93
2023-05-10T07:59:54.076Z,16.06
2023-05-10T08:04:54.772Z,16.33
2023-05-10T08:09:56.885Z,16.38
2023-05-10T08:14:58.058Z,16.51
2023-05-10T08:19:58.794Z,16.63
2023-05-10T08:25:00.782Z,16.78
2023-05-10T08:30:01.663Z,16.88
2023-05-10T08:35:02.929Z,16.88
2023-05-10T08:40:05.555Z,17.08
2023-05-10T08:45:09.035Z,17.20
2023-05-10T08:50:10.580Z,17.28
2023-05-10T08:55:12.599Z,17.66
2023-05-10T09:00:15.361Z,17.67
2023-05-10T09:05:17.362Z,17.68
2023-05-10T09:10:20.104Z,17.79
2023-05-10T09:15:21.200Z,17.84
2023-05-10T09:20:22.383Z,18.05
2023-05-10T09:25:24.564Z,18.08
2023-05-10T09:30:27.528Z,18.40
2023-05-10T09:35:30.224Z,18.60
2023-05-10T09:40:33.485Z,18.85
2023-05-10T09:45:38.618Z,18.79
2023-05-10T09:50:39.847Z,19.00
2023-05-10T09:55:45.693Z,19.09
2023-05-10T10:00:52.291Z,19.28
2023-05-10T10:05:54.274Z,19.39
2023-05-10T10:10:56.401Z,19.55
2023-05-10T10:15:57.214Z,19.70
2023-05-10T10:20:59.049Z,19.89
2023-05-10T10:26:01.899Z,20.01
2023-05-10T10:31:17.828Z,20.15
2023-05-10T10:36:18.660Z,20.21
2023-05-10T10:41:31.754Z,20.19
2023-05-10T10:46:33.012Z,20.26
2023-05-10T10:51:33.731Z,20.15
2023-05-10T10:56:37.208Z,20.07
2023-05-10T11:01:38.164Z,20.30
2023-05-10T11:06:39.127Z,20.49
2023-05-10T11:11:51.425Z,20.62
2023-05-10T11:16:52.469Z,21.14
2023-05-10T11:22:14.168Z,21.21
2023-05-10T11:27:16.307Z,21.35
2023-05-10T11:32:17.076Z,21.36
2023-05-10T11:37:17.736Z,21.73
2023-05-10T11:42:19.771Z,21.97
2023-05-10T11:47:20.923Z,21.92
2023-05-10T11:52:21.727Z,22.09
2023-05-10T11:57:28.777Z,21.84
2023-05-10T12:02:29.643Z,21.78
2023-05-10T12:07:30.486Z,21.66
2023-05-10T12:12:39.658Z,22.16
2023-05-10T12:17:43.348Z,22.23
2023-05-10T12:22:46.704Z,22.44
2023-05-10T12:27:57.029Z,22.18
2023-05-10T12:33:02.464Z,22.35
2023-05-10T12:38:03.154Z,22.73
2023-05-10T12:43:05.193Z,22.55
2023-05-10T12:48:06.254Z,22.42
2023-05-10T12:53:06.941Z,22.58
2023-05-10T12:58:09.011Z,22.32
2023-05-10T13:03:09.721Z,22.13
2023-05-10T13:08:10.489Z,22.13
2023-05-10T13:13:12.615Z,21.91
2023-05-10T13:18:13.366Z,22.36
2023-05-10T13:23:16.090Z,22.15
2023-05-10T13:28:18.161Z,22.05
2023-05-10T13:33:18.905Z,21.56
2023-05-10T13:38:21.078Z,21.54
2023-05-10T13:43:26.281Z,22.01
2023-05-10T13:48:26.932Z,21.97
2023-05-10T13:53:27.786Z,22.15
2023-05-10T13:58:29.862Z,22.32
2023-05-10T14:03:30.576Z,22.14
2023-05-10T14:08:31.343Z,21.90
2023-05-10T14:13:33.864Z,21.90
2023-05-10T14:18:34.700Z,21.89
2023-05-10T14:23:35.667Z,21.77
2023-05-10T14:28:37.737Z,22.07
2023-05-10T14:33:38.432Z,22.40
2023-05-10T14:38:39.203Z,22.15
2023-05-10T14:43:41.314Z,22.15
2023-05-10T14:48:41.944Z,22.27
2023-05-10T14:53:42.625Z,21.98
2023-05-10T14:58:44.594Z,21.73
2023-05-10T15:03:45.346Z,22.15
2023-05-10T15:08:46.373Z,21.36
2023-05-10T15:13:48.380Z,20.99
2023-05-10T15:18:49.276Z,19.95
2023-05-10T15:23:50.200Z,20.03
2023-05-10T15:28:52.256Z,19.85
2023-05-10T15:33:55.084Z,19.50
2023-05-10T15:38:55.874Z,19.83
2023-05-10T15:43:58.173Z,19.51
2023-05-10T15:48:59.478Z,19.51
2023-05-10T15:54:07.094Z,19.31
2023-05-10T15:59:11.598Z,19.26
2023-05-10T16:04:12.504Z,19.11
2023-05-10T16:09:13.160Z,19.01
2023-05-10T16:14:16.381Z,18.89
2023-05-10T16:19:17.108Z,18.80
2023-05-10T16:24:17.877Z,18.78
2023-05-10T16:29:19.974Z,18.60
2023-05-10T16:34:24.217Z,18.55
2023-05-10T16:39:24.919Z,18.59
2023-05-10T16:44:26.972Z,18.64
2023-05-10T16:49:27.599Z,18.56
2023-05-10T16:54:29.469Z,18.46
2023-05-10T16:59:31.412Z,18.45
2023-05-10T17:04:32.216Z,18.38
2023-05-10T17:09:32.855Z,18.26
2023-05-10T17:14:35.086Z,18.14
2023-05-10T17:19:36.204Z,18.00
2023-05-10T17:24:36.885Z,17.80
2023-05-10T17:29:38.944Z,17.80
2023-05-10T17:34:40.075Z,17.60
2023-05-10T17:39:40.741Z,17.39
2023-05-10T17:44:42.745Z,17.29
2023-05-10T17:49:44.541Z,17.27
2023-05-10T17:54:45.163Z,17.26
2023-05-10T17:59:47.184Z,17.14
2023-05-10T18:04:49.424Z,17.11
2023-05-10T18:09:50.214Z,17.03
2023-05-10T18:14:52.527Z,16.91
2023-05-10T18:19:53.584Z,16.77
2023-05-10T18:24:54.315Z,16.64
2023-05-10T18:29:56.335Z,16.52
2023-05-10T18:34:58.226Z,16.45
2023-05-10T18:39:58.929Z,16.39
2023-05-10T18:45:00.992Z,16.30
2023-05-10T18:50:01.634Z,16.23
2023-05-10T19:00:32.558Z,16.01
2023-05-10T19:05:33.242Z,15.95
2023-05-10T19:10:34.102Z,15.79
2023-05-10T19:15:36.228Z,15.73
2023-05-10T19:20:38.498Z,15.76
2023-05-10T19:25:42.268Z,15.89
2023-05-10T19:30:44.320Z,15.97
2023-05-10T19:35:44.953Z,15.89
2023-05-10T19:40:46.898Z,15.82
2023-05-10T19:45:49.037Z,15.65
2023-05-10T19:50:49.683Z,15.59
2023-05-10T19:55:50.379Z,15.66
2023-05-10T20:00:52.466Z,15.49
2023-05-10T20:05:53.412Z,15.43
2023-05-10T20:10:54.193Z,15.40
2023-05-10T20:15:58.082Z,15.28
2023-05-10T20:21:00.955Z,14.97
2023-05-10T20:26:01.727Z,14.79
2023-05-10T20:31:03.801Z,14.67
2023-05-10T20:36:05.023Z,14.63
2023-05-10T20:41:05.673Z,14.61
2023-05-10T20:46:07.759Z,14.53
2023-05-10T20:51:08.472Z,14.46
2023-05-10T20:56:09.157Z,14.21
2023-05-10T21:01:11.900Z,14.13
2023-05-10T21:06:12.529Z,14.24
2023-05-10T21:11:13.188Z,14.21
2023-05-10T21:16:15.295Z,14.07
2023-05-10T21:21:15.948Z,13.92
2023-05-10T21:26:16.923Z,13.87
2023-05-10T21:31:18.980Z,13.78
2023-05-10T21:36:19.741Z,13.83
2023-05-10T21:41:21.725Z,13.59
2023-05-10T21:46:23.895Z,13.60
2023-05-10T21:51:24.589Z,13.64
2023-05-10T21:56:25.301Z,13.48
2023-05-10T22:01:27.391Z,13.49
2023-05-10T22:06:28.088Z,13.29
2023-05-10T22:11:28.728Z,13.14
2023-05-10T22:16:31.004Z,12.95
2023-05-10T22:21:31.897Z,12.90
2023-05-10T22:26:32.564Z,12.84
2023-05-10T22:31:34.772Z,12.78
2023-05-10T22:36:35.516Z,12.80
2023-05-10T22:41:36.167Z,12.60
2023-05-10T22:46:38.246Z,12.55
2023-05-10T22:51:38.992Z,12.49
2023-05-10T22:56:39.678Z,12.44
2023-05-10T23:01:41.841Z,12.38
2023-05-10T23:06:42.553Z,12.35
2023-05-10T23:11:43.209Z,12.29
2023-05-10T23:16:45.288Z,12.21
2023-05-10T23:21:46.011Z,12.11
2023-05-10T23:26:47.318Z,12.05
2023-05-10T23:31:51.327Z,12.09
2023-05-10T23:36:52.003Z,12.01
2023-05-10T23:41:52.763Z,11.96
2023-05-10T23:46:54.770Z,12.03
2023-05-10T23:51:55.461Z,11.97
2023-05-10T23:56:56.112Z,11.78
